Terminal Aerodrome Forecast
Issued by NWS Memphis, TN

Home | Current Version | Previous Version | Text Only | Print | Product List | Glossary On
Versions: 1 2 3 4 5 6 7 8 9 10 11 12 13 14 15 16 17 18 19 20 21
000
FTUS44 KMEG 221915 AAA
TAFJBR
TAF AMD
KJBR 221915Z 2219/2318 18012KT 2SM BR VCSH OVC002
      TEMPO 2219/2221 SCT002 OVC005
     FM222200 16008KT 4SM BR VCSH BKN005 OVC012
     FM230200 21008KT 3SM BR VCSH OVC005
     FM230600 28006KT 3SM BR SCT005 OVC020
     FM231300 33005KT 5SM BR SCT005 OVC040=

USA.gov is the U.S. government's official web portal to all federal, state and local government web resources and services.